sensor_id;sensor_type;location;lat;lon;timestamp;pressure;altitude;pressure_sealevel;temperature;humidity
46846;BME280;33947;46.804;134.252;2023-09-19T00:02:31;99844.81;;;18.18;100.00
46846;BME280;33947;46.804;134.252;2023-09-19T00:05:37;99844.91;;;18.17;100.00
46846;BME280;33947;46.804;134.252;2023-09-19T00:08:44;99827.50;;;18.10;100.00
46846;BME280;33947;46.804;134.252;2023-09-19T00:11:49;99770.06;;;17.72;99.75
46846;BME280;33947;46.804;134.252;2023-09-19T00:14:55;99807.03;;;17.81;100.00
46846;BME280;33947;46.804;134.252;2023-09-19T00:18:00;99792.00;;;17.65;100.00
46846;BME280;33947;46.804;134.252;2023-09-19T00:21:07;99768.78;;;17.77;100.00
46846;BME280;33947;46.804;134.252;2023-09-19T00:24:11;99779.44;;;17.79;100.00
46846;BME280;33947;46.804;134.252;2023-09-19T00:27:16;99786.03;;;18.01;100.00
46846;BME280;33947;46.804;134.252;2023-09-19T00:30:20;99791.78;;;17.82;100.00
46846;BME280;33947;46.804;134.252;2023-09-19T00:33:26;99824.19;;;18.06;100.00
46846;BME280;33947;46.804;134.252;2023-09-19T00:36:31;99832.34;;;18.04;99.72
46846;BME280;33947;46.804;134.252;2023-09-19T00:39:40;99796.63;;;17.63;99.61
46846;BME280;33947;46.804;134.252;2023-09-19T00:42:50;99803.50;;;17.68;100.00
46846;BME280;33947;46.804;134.252;2023-09-19T00:53:31;99820.38;;;17.70;100.00
46846;BME280;33947;46.804;134.252;2023-09-19T00:56:44;99800.03;;;17.78;100.00
46846;BME280;33947;46.804;134.252;2023-09-19T00:59:54;99797.91;;;17.97;97.83
46846;BME280;33947;46.804;134.252;2023-09-19T01:03:03;99806.53;;;18.15;98.40
46846;BME280;33947;46.804;134.252;2023-09-19T01:06:16;99803.00;;;18.01;96.37
46846;BME280;33947;46.804;134.252;2023-09-19T01:09:27;99794.41;;;18.22;97.73
46846;BME280;33947;46.804;134.252;2023-09-19T01:30:13;99778.72;;;21.96;79.39
46846;BME280;33947;46.804;134.252;2023-09-19T01:33:21;99761.53;;;23.09;75.70
46846;BME280;33947;46.804;134.252;2023-09-19T01:36:31;99768.66;;;23.10;74.66
46846;BME280;33947;46.804;134.252;2023-09-19T01:39:41;99756.25;;;22.78;73.56
46846;BME280;33947;46.804;134.252;2023-09-19T01:43:12;99773.16;;;22.60;73.50
46846;BME280;33947;46.804;134.252;2023-09-19T01:46:50;99771.44;;;22.28;68.77
46846;BME280;33947;46.804;134.252;2023-09-19T01:54:34;99696.91;;;22.14;73.53
46846;BME280;33947;46.804;134.252;2023-09-19T02:07:35;99688.19;;;20.73;76.78
46846;BME280;33947;46.804;134.252;2023-09-19T02:11:33;99666.13;;;20.68;77.01
46846;BME280;33947;46.804;134.252;2023-09-19T02:24:21;99696.50;;;21.57;69.16
46846;BME280;33947;46.804;134.252;2023-09-19T02:28:18;99668.63;;;20.92;69.66
46846;BME280;33947;46.804;134.252;2023-09-19T02:32:23;99624.47;;;20.17;74.05
46846;BME280;33947;46.804;134.252;2023-09-19T02:36:44;99705.13;;;21.08;72.59
46846;BME280;33947;46.804;134.252;2023-09-19T02:40:46;99584.78;;;21.67;69.15
46846;BME280;33947;46.804;134.252;2023-09-19T02:44:41;99700.13;;;22.39;67.38
46846;BME280;33947;46.804;134.252;2023-09-19T02:49:02;99678.47;;;21.15;71.13
46846;BME280;33947;46.804;134.252;2023-09-19T03:05:05;99700.72;;;21.28;70.96
46846;BME280;33947;46.804;134.252;2023-09-19T03:08:16;99673.41;;;21.21;71.40
46846;BME280;33947;46.804;134.252;2023-09-19T03:11:23;99713.44;;;21.16;71.78
46846;BME280;33947;46.804;134.252;2023-09-19T03:14:32;99693.94;;;21.13;71.37
46846;BME280;33947;46.804;134.252;2023-09-19T03:17:43;99681.63;;;20.99;69.27
46846;BME280;33947;46.804;134.252;2023-09-19T03:20:54;99667.38;;;20.96;71.09
46846;BME280;33947;46.804;134.252;2023-09-19T03:24:02;99697.56;;;21.65;70.11
46846;BME280;33947;46.804;134.252;2023-09-19T03:27:10;99675.63;;;21.80;69.32
46846;BME280;33947;46.804;134.252;2023-09-19T03:30:19;99683.84;;;21.78;68.29
46846;BME280;33947;46.804;134.252;2023-09-19T03:33:26;99654.66;;;21.72;68.74
46846;BME280;33947;46.804;134.252;2023-09-19T03:36:31;99662.38;;;22.27;67.25
46846;BME280;33947;46.804;134.252;2023-09-19T03:39:36;99658.91;;;22.57;66.65
46846;BME280;33947;46.804;134.252;2023-09-19T03:42:41;99668.03;;;22.75;66.37
46846;BME280;33947;46.804;134.252;2023-09-19T03:45:48;99655.91;;;22.79;65.66
46846;BME280;33947;46.804;134.252;2023-09-19T03:48:56;99654.84;;;22.41;60.75
46846;BME280;33947;46.804;134.252;2023-09-19T03:52:01;99612.78;;;22.07;65.72
46846;BME280;33947;46.804;134.252;2023-09-19T03:55:24;99529.66;;;21.59;64.41
46846;BME280;33947;46.804;134.252;2023-09-19T03:59:07;99554.47;;;21.33;66.02
46846;BME280;33947;46.804;134.252;2023-09-19T04:02:58;99520.44;;;20.89;67.15
46846;BME280;33947;46.804;134.252;2023-09-19T04:14:33;99527.19;;;21.67;63.30
46846;BME280;33947;46.804;134.252;2023-09-19T04:18:47;99604.53;;;21.99;65.35
46846;BME280;33947;46.804;134.252;2023-09-19T04:22:22;99459.53;;;20.75;65.16
46846;BME280;33947;46.804;134.252;2023-09-19T04:25:54;99452.72;;;20.50;65.03
46846;BME280;33947;46.804;134.252;2023-09-19T04:29:50;99451.28;;;20.46;65.37
46846;BME280;33947;46.804;134.252;2023-09-19T04:33:38;99456.59;;;20.15;63.70
46846;BME280;33947;46.804;134.252;2023-09-19T04:41:34;99525.41;;;20.51;64.00
46846;BME280;33947;46.804;134.252;2023-09-19T04:45:44;99517.50;;;20.60;64.68
46846;BME280;33947;46.804;134.252;2023-09-19T04:54:29;99534.50;;;20.72;64.51
46846;BME280;33947;46.804;134.252;2023-09-19T05:01:23;99519.13;;;20.84;65.38
46846;BME280;33947;46.804;134.252;2023-09-19T05:04:31;99563.78;;;21.19;65.60
46846;BME280;33947;46.804;134.252;2023-09-19T05:07:36;99561.22;;;20.96;65.45
46846;BME280;33947;46.804;134.252;2023-09-19T05:10:47;99553.59;;;21.01;65.63
46846;BME280;33947;46.804;134.252;2023-09-19T05:13:51;99582.91;;;21.06;65.46
46846;BME280;33947;46.804;134.252;2023-09-19T05:16:59;99569.22;;;20.98;65.92
46846;BME280;33947;46.804;134.252;2023-09-19T05:20:06;99570.81;;;20.67;67.03
46846;BME280;33947;46.804;134.252;2023-09-19T05:23:30;99575.94;;;20.49;66.55
46846;BME280;33947;46.804;134.252;2023-09-19T05:26:35;99568.63;;;20.40;67.00
46846;BME280;33947;46.804;134.252;2023-09-19T05:29:39;99567.94;;;20.59;66.68
46846;BME280;33947;46.804;134.252;2023-09-19T05:32:43;99568.38;;;20.64;66.66
46846;BME280;33947;46.804;134.252;2023-09-19T05:35:48;99565.03;;;20.72;66.14
46846;BME280;33947;46.804;134.252;2023-09-19T05:38:52;99564.13;;;20.83;66.26
46846;BME280;33947;46.804;134.252;2023-09-19T05:41:57;99560.31;;;21.07;65.61
46846;BME280;33947;46.804;134.252;2023-09-19T05:45:01;99555.13;;;21.56;64.13
46846;BME280;33947;46.804;134.252;2023-09-19T05:48:11;99521.91;;;21.65;63.46
46846;BME280;33947;46.804;134.252;2023-09-19T05:51:17;99545.41;;;21.85;63.44
46846;BME280;33947;46.804;134.252;2023-09-19T05:54:26;99551.25;;;21.80;62.36
46846;BME280;33947;46.804;134.252;2023-09-19T05:57:31;99561.97;;;22.11;61.51
46846;BME280;33947;46.804;134.252;2023-09-19T06:01:04;99520.50;;;21.71;58.49
46846;BME280;33947;46.804;134.252;2023-09-19T06:09:56;99461.97;;;20.57;59.48
46846;BME280;33947;46.804;134.252;2023-09-19T06:13:16;99569.81;;;21.32;60.53
46846;BME280;33947;46.804;134.252;2023-09-19T06:16:25;99527.25;;;20.72;56.56
46846;BME280;33947;46.804;134.252;2023-09-19T06:19:35;99570.56;;;21.13;59.67
46846;BME280;33947;46.804;134.252;2023-09-19T06:22:42;99559.72;;;20.82;58.02
46846;BME280;33947;46.804;134.252;2023-09-19T06:25:47;99570.25;;;21.06;59.07
46846;BME280;33947;46.804;134.252;2023-09-19T06:28:52;99585.50;;;21.17;59.22
46846;BME280;33947;46.804;134.252;2023-09-19T06:32:07;99583.16;;;20.81;60.01
46846;BME280;33947;46.804;134.252;2023-09-19T06:35:16;99564.84;;;19.99;62.95
46846;BME280;33947;46.804;134.252;2023-09-19T06:38:26;99573.69;;;19.32;64.57
46846;BME280;33947;46.804;134.252;2023-09-19T06:41:33;99580.88;;;18.98;65.08
46846;BME280;33947;46.804;134.252;2023-09-19T06:44:47;99591.25;;;19.02;66.55
46846;BME280;33947;46.804;134.252;2023-09-19T06:47:56;99611.88;;;18.90;67.46
46846;BME280;33947;46.804;134.252;2023-09-19T06:51:02;99658.44;;;18.79;68.71
46846;BME280;33947;46.804;134.252;2023-09-19T06:54:11;99728.94;;;18.10;74.98
46846;BME280;33947;46.804;134.252;2023-09-19T06:57:15;99659.41;;;17.15;75.46
46846;BME280;33947;46.804;134.252;2023-09-19T07:00:20;99673.75;;;17.01;76.25
46846;BME280;33947;46.804;134.252;2023-09-19T07:03:28;99663.31;;;16.56;79.95
46846;BME280;33947;46.804;134.252;2023-09-19T07:06:33;99659.31;;;16.76;77.62
46846;BME280;33947;46.804;134.252;2023-09-19T07:09:38;99674.53;;;17.16;76.26
46846;BME280;33947;46.804;134.252;2023-09-19T07:12:44;99644.47;;;17.11;76.71
46846;BME280;33947;46.804;134.252;2023-09-19T07:15:48;99645.44;;;17.10;76.70
46846;BME280;33947;46.804;134.252;2023-09-19T07:18:53;99646.53;;;17.07;77.11
46846;BME280;33947;46.804;134.252;2023-09-19T07:22:00;99664.56;;;17.05;78.03
46846;BME280;33947;46.804;134.252;2023-09-19T07:25:10;99679.56;;;17.07;78.73
46846;BME280;33947;46.804;134.252;2023-09-19T07:28:27;99679.78;;;16.77;81.67
46846;BME280;33947;46.804;134.252;2023-09-19T07:31:35;99679.97;;;16.46;83.55
46846;BME280;33947;46.804;134.252;2023-09-19T07:34:42;99684.97;;;16.53;84.50
46846;BME280;33947;46.804;134.252;2023-09-19T07:37:49;99688.13;;;16.72;82.52
46846;BME280;33947;46.804;134.252;2023-09-19T07:41:01;99699.41;;;16.77;83.25
46846;BME280;33947;46.804;134.252;2023-09-19T07:44:08;99693.84;;;16.81;82.29
46846;BME280;33947;46.804;134.252;2023-09-19T07:47:21;99690.00;;;16.57;84.54
46846;BME280;33947;46.804;134.252;2023-09-19T07:50:25;99691.84;;;16.57;85.97
46846;BME280;33947;46.804;134.252;2023-09-19T07:53:30;99699.00;;;16.56;86.50
46846;BME280;33947;46.804;134.252;2023-09-19T07:56:39;99687.53;;;16.54;86.45
46846;BME280;33947;46.804;134.252;2023-09-19T07:59:53;99674.97;;;16.27;88.17
46846;BME280;33947;46.804;134.252;2023-09-19T08:02:57;99674.97;;;16.27;88.41
46846;BME280;33947;46.804;134.252;2023-09-19T08:10:38;99623.75;;;16.04;89.68
46846;BME280;33947;46.804;134.252;2023-09-19T08:14:55;99593.91;;;15.82;90.34
46846;BME280;33947;46.804;134.252;2023-09-19T08:23:10;99549.66;;;15.61;93.17
46846;BME280;33947;46.804;134.252;2023-09-19T08:27:04;99649.09;;;16.13;91.41
46846;BME280;33947;46.804;134.252;2023-09-19T08:31:16;99618.22;;;15.93;91.22
46846;BME280;33947;46.804;134.252;2023-09-19T08:35:06;99677.59;;;16.14;91.58
46846;BME280;33947;46.804;134.252;2023-09-19T08:38:27;99675.88;;;16.13;91.84
46846;BME280;33947;46.804;134.252;2023-09-19T08:42:09;99626.03;;;15.53;93.05
46846;BME280;33947;46.804;134.252;2023-09-19T08:46:29;99747.41;;;16.40;92.55
46846;BME280;33947;46.804;134.252;2023-09-19T08:55:19;99693.66;;;16.00;94.27
46846;BME280;33947;46.804;134.252;2023-09-19T08:59:07;99679.78;;;15.78;93.84
46846;BME280;33947;46.804;134.252;2023-09-19T09:03:49;99662.84;;;15.63;95.91
46846;BME280;33947;46.804;134.252;2023-09-19T09:08:10;99673.88;;;15.59;95.82
46846;BME280;33947;46.804;134.252;2023-09-19T09:11:38;99662.00;;;15.48;95.71
46846;BME280;33947;46.804;134.252;2023-09-19T09:14:50;99725.63;;;15.74;96.00
46846;BME280;33947;46.804;134.252;2023-09-19T09:18:31;99651.16;;;15.07;97.11
46846;BME280;33947;46.804;134.252;2023-09-19T09:22:28;99681.28;;;14.94;99.41
46846;BME280;33947;46.804;134.252;2023-09-19T09:30:52;99722.63;;;15.19;96.81
46846;BME280;33947;46.804;134.252;2023-09-19T09:34:13;99710.69;;;14.94;97.62
46846;BME280;33947;46.804;134.252;2023-09-19T09:37:59;99729.50;;;15.09;95.07
46846;BME280;33947;46.804;134.252;2023-09-19T09:46:31;99714.63;;;14.40;98.96
46846;BME280;33947;46.804;134.252;2023-09-19T09:51:30;99757.81;;;14.48;96.92
46846;BME280;33947;46.804;134.252;2023-09-19T09:59:27;99854.78;;;15.00;97.75
46846;BME280;33947;46.804;134.252;2023-09-19T10:03:37;99742.28;;;14.39;96.88
46846;BME280;33947;46.804;134.252;2023-09-19T10:06:55;99881.84;;;15.42;95.66
46846;BME280;33947;46.804;134.252;2023-09-19T10:10:01;99847.00;;;15.12;94.91
46846;BME280;33947;46.804;134.252;2023-09-19T10:13:52;99799.63;;;14.66;95.14
46846;BME280;33947;46.804;134.252;2023-09-19T10:17:44;99896.09;;;15.27;94.47
46846;BME280;33947;46.804;134.252;2023-09-19T10:20:51;99892.31;;;15.31;94.99
46846;BME280;33947;46.804;134.252;2023-09-19T10:23:58;99906.22;;;15.38;95.43
46846;BME280;33947;46.804;134.252;2023-09-19T10:27:06;99912.69;;;15.17;95.67
46846;BME280;33947;46.804;134.252;2023-09-19T10:30:14;99919.63;;;14.88;94.32
46846;BME280;33947;46.804;134.252;2023-09-19T10:33:35;99918.91;;;14.68;92.91
46846;BME280;33947;46.804;134.252;2023-09-19T10:36:46;99899.00;;;14.40;93.64
46846;BME280;33947;46.804;134.252;2023-09-19T10:39:51;99939.69;;;14.45;92.56
46846;BME280;33947;46.804;134.252;2023-09-19T10:43:04;99950.44;;;14.61;93.54
46846;BME280;33947;46.804;134.252;2023-09-19T10:46:09;99952.28;;;14.43;92.13
46846;BME280;33947;46.804;134.252;2023-09-19T10:49:23;99986.09;;;14.27;89.11
46846;BME280;33947;46.804;134.252;2023-09-19T10:52:33;99984.66;;;14.02;88.88
46846;BME280;33947;46.804;134.252;2023-09-19T10:56:07;99991.78;;;13.84;85.59
46846;BME280;33947;46.804;134.252;2023-09-19T10:59:24;100004.03;;;13.88;88.99
46846;BME280;33947;46.804;134.252;2023-09-19T11:02:30;100016.47;;;13.70;86.82
46846;BME280;33947;46.804;134.252;2023-09-19T11:05:39;100034.06;;;13.74;88.77
46846;BME280;33947;46.804;134.252;2023-09-19T11:09:09;100050.84;;;13.58;87.41
46846;BME280;33947;46.804;134.252;2023-09-19T11:16:17;100067.53;;;13.62;88.09
46846;BME280;33947;46.804;134.252;2023-09-19T11:19:14;100085.97;;;13.49;87.70
46846;BME280;33947;46.804;134.252;2023-09-19T11:22:25;100098.16;;;13.34;84.74
46846;BME280;33947;46.804;134.252;2023-09-19T11:28:36;100105.13;;;13.17;84.18
46846;BME280;33947;46.804;134.252;2023-09-19T11:31:43;100093.84;;;12.92;83.91
46846;BME280;33947;46.804;134.252;2023-09-19T11:34:48;100116.63;;;12.99;84.51
46846;BME280;33947;46.804;134.252;2023-09-19T11:44:33;100115.31;;;12.66;83.49
46846;BME280;33947;46.804;134.252;2023-09-19T11:47:40;100074.19;;;12.30;82.41
46846;BME280;33947;46.804;134.252;2023-09-19T11:50:48;100111.63;;;12.48;82.02
46846;BME280;33947;46.804;134.252;2023-09-19T11:53:58;100121.69;;;12.41;83.55
46846;BME280;33947;46.804;134.252;2023-09-19T11:57:05;100129.94;;;12.35;81.52
46846;BME280;33947;46.804;134.252;2023-09-19T12:00:17;100135.84;;;12.21;81.56
46846;BME280;33947;46.804;134.252;2023-09-19T12:03:29;100130.88;;;12.34;81.37
46846;BME280;33947;46.804;134.252;2023-09-19T12:06:34;100142.00;;;12.22;81.19
46846;BME280;33947;46.804;134.252;2023-09-19T12:09:39;100154.09;;;12.08;80.55
46846;BME280;33947;46.804;134.252;2023-09-19T12:13:02;100154.94;;;12.31;82.77
46846;BME280;33947;46.804;134.252;2023-09-19T12:16:17;100153.28;;;12.06;80.18
46846;BME280;33947;46.804;134.252;2023-09-19T12:19:25;100136.66;;;11.99;82.30
46846;BME280;33947;46.804;134.252;2023-09-19T12:22:49;100037.94;;;11.37;80.37
46846;BME280;33947;46.804;134.252;2023-09-19T12:26:01;100151.09;;;11.94;80.65
46846;BME280;33947;46.804;134.252;2023-09-19T12:29:52;100177.50;;;11.98;81.27
46846;BME280;33947;46.804;134.252;2023-09-19T12:33:27;100172.66;;;11.86;81.23
46846;BME280;33947;46.804;134.252;2023-09-19T12:36:34;100173.06;;;11.75;81.88
46846;BME280;33947;46.804;134.252;2023-09-19T12:39:46;100182.09;;;11.95;82.39
46846;BME280;33947;46.804;134.252;2023-09-19T12:42:56;100202.56;;;11.93;81.44
46846;BME280;33947;46.804;134.252;2023-09-19T12:46:10;100207.16;;;11.89;80.91
46846;BME280;33947;46.804;134.252;2023-09-19T12:49:18;100188.63;;;11.86;83.26
46846;BME280;33947;46.804;134.252;2023-09-19T12:52:38;100208.88;;;11.90;81.55
46846;BME280;33947;46.804;134.252;2023-09-19T12:55:50;100163.94;;;11.58;81.74
46846;BME280;33947;46.804;134.252;2023-09-19T12:59:02;100214.25;;;11.88;80.68
46846;BME280;33947;46.804;134.252;2023-09-19T13:02:09;100199.56;;;11.78;80.38
46846;BME280;33947;46.804;134.252;2023-09-19T13:05:52;100230.09;;;11.92;80.78
46846;BME280;33947;46.804;134.252;2023-09-19T13:09:24;100156.16;;;11.52;79.58
46846;BME280;33947;46.804;134.252;2023-09-19T13:12:44;100147.78;;;11.39;79.26
46846;BME280;33947;46.804;134.252;2023-09-19T13:16:00;100114.22;;;11.11;78.04
46846;BME280;33947;46.804;134.252;2023-09-19T13:19:35;100187.38;;;11.47;79.82
46846;BME280;33947;46.804;134.252;2023-09-19T13:23:29;100129.63;;;11.02;78.60
46846;BME280;33947;46.804;134.252;2023-09-19T13:27:06;100162.44;;;11.00;78.65
46846;BME280;33947;46.804;134.252;2023-09-19T13:30:36;100095.31;;;10.70;78.35
46846;BME280;33947;46.804;134.252;2023-09-19T13:37:55;100133.56;;;10.90;77.76
46846;BME280;33947;46.804;134.252;2023-09-19T13:41:35;100243.72;;;11.33;76.78
46846;BME280;33947;46.804;134.252;2023-09-19T13:45:15;100131.00;;;10.61;77.08
46846;BME280;33947;46.804;134.252;2023-09-19T13:53:09;100115.63;;;10.44;76.22
46846;BME280;33947;46.804;134.252;2023-09-19T13:56:48;100167.38;;;10.86;76.93
46846;BME280;33947;46.804;134.252;2023-09-19T14:00:16;100166.03;;;10.73;77.50
46846;BME280;33947;46.804;134.252;2023-09-19T14:11:36;100186.75;;;10.63;77.78
46846;BME280;33947;46.804;134.252;2023-09-19T14:15:04;100214.56;;;10.78;77.21
46846;BME280;33947;46.804;134.252;2023-09-19T14:22:23;100200.69;;;10.42;75.12
46846;BME280;33947;46.804;134.252;2023-09-19T14:26:29;100230.81;;;10.68;75.07
46846;BME280;33947;46.804;134.252;2023-09-19T14:30:22;100215.22;;;10.57;75.32
46846;BME280;33947;46.804;134.252;2023-09-19T14:34:09;100241.94;;;10.81;76.97
46846;BME280;33947;46.804;134.252;2023-09-19T14:37:14;100291.56;;;11.08;76.80
46846;BME280;33947;46.804;134.252;2023-09-19T14:40:20;100301.16;;;10.85;77.18
46846;BME280;33947;46.804;134.252;2023-09-19T14:43:26;100296.78;;;10.84;77.99
46846;BME280;33947;46.804;134.252;2023-09-19T14:46:31;100304.63;;;10.87;77.45
46846;BME280;33947;46.804;134.252;2023-09-19T14:49:38;100312.72;;;10.84;77.46
46846;BME280;33947;46.804;134.252;2023-09-19T14:52:43;100312.75;;;10.82;79.20
46846;BME280;33947;46.804;134.252;2023-09-19T14:55:49;100305.47;;;10.61;78.80
46846;BME280;33947;46.804;134.252;2023-09-19T14:58:55;100303.22;;;10.47;78.77
46846;BME280;33947;46.804;134.252;2023-09-19T15:02:00;100321.47;;;10.57;78.93
46846;BME280;33947;46.804;134.252;2023-09-19T15:05:10;100320.53;;;10.60;79.63
46846;BME280;33947;46.804;134.252;2023-09-19T15:08:15;100336.47;;;10.60;79.72
46846;BME280;33947;46.804;134.252;2023-09-19T15:11:20;100318.69;;;10.62;79.52
46846;BME280;33947;46.804;134.252;2023-09-19T15:14:25;100311.75;;;10.56;79.52
46846;BME280;33947;46.804;134.252;2023-09-19T15:17:30;100351.38;;;10.64;79.56
46846;BME280;33947;46.804;134.252;2023-09-19T15:20:43;100343.81;;;10.50;79.51
46846;BME280;33947;46.804;134.252;2023-09-19T15:23:47;100348.31;;;10.48;79.64
46846;BME280;33947;46.804;134.252;2023-09-19T15:26:54;100348.28;;;10.50;79.44
46846;BME280;33947;46.804;134.252;2023-09-19T15:30:01;100372.19;;;10.50;79.78
46846;BME280;33947;46.804;134.252;2023-09-19T15:33:07;100386.13;;;10.56;79.80
46846;BME280;33947;46.804;134.252;2023-09-19T15:36:15;100322.16;;;10.03;79.95
46846;BME280;33947;46.804;134.252;2023-09-19T15:40:05;100298.47;;;9.95;79.94
46846;BME280;33947;46.804;134.252;2023-09-19T15:43:19;100278.38;;;9.54;79.91
46846;BME280;33947;46.804;134.252;2023-09-19T15:46:25;100394.72;;;10.35;79.44
46846;BME280;33947;46.804;134.252;2023-09-19T15:49:38;100375.66;;;9.87;79.93
46846;BME280;33947;46.804;134.252;2023-09-19T15:52:45;100377.16;;;9.97;78.18
46846;BME280;33947;46.804;134.252;2023-09-19T15:55:57;100391.25;;;9.99;78.77
46846;BME280;33947;46.804;134.252;2023-09-19T15:59:12;100404.44;;;10.01;78.70
46846;BME280;33947;46.804;134.252;2023-09-19T16:02:29;100398.91;;;10.10;78.34
46846;BME280;33947;46.804;134.252;2023-09-19T16:05:37;100366.63;;;9.94;77.43
46846;BME280;33947;46.804;134.252;2023-09-19T16:08:48;100413.78;;;10.16;77.36
46846;BME280;33947;46.804;134.252;2023-09-19T16:11:57;100365.34;;;9.76;76.96
46846;BME280;33947;46.804;134.252;2023-09-19T16:15:06;100409.63;;;10.07;77.41
46846;BME280;33947;46.804;134.252;2023-09-19T16:18:14;100398.19;;;10.05;76.54
46846;BME280;33947;46.804;134.252;2023-09-19T16:21:24;100411.09;;;10.18;76.25
46846;BME280;33947;46.804;134.252;2023-09-19T16:24:30;100392.25;;;9.95;77.17
46846;BME280;33947;46.804;134.252;2023-09-19T16:27:34;100387.13;;;9.88;77.28
46846;BME280;33947;46.804;134.252;2023-09-19T16:30:45;100397.56;;;9.94;76.82
46846;BME280;33947;46.804;134.252;2023-09-19T16:33:50;100409.84;;;9.98;76.78
46846;BME280;33947;46.804;134.252;2023-09-19T16:37:00;100395.41;;;9.75;77.09
46846;BME280;33947;46.804;134.252;2023-09-19T16:40:09;100389.38;;;9.70;78.31
46846;BME280;33947;46.804;134.252;2023-09-19T16:43:27;100419.78;;;9.91;77.59
46846;BME280;33947;46.804;134.252;2023-09-19T16:46:37;100401.81;;;9.68;77.35
46846;BME280;33947;46.804;134.252;2023-09-19T16:49:42;100435.88;;;9.83;78.33
46846;BME280;33947;46.804;134.252;2023-09-19T16:53:03;100360.41;;;9.26;78.19
46846;BME280;33947;46.804;134.252;2023-09-19T16:56:25;100384.19;;;9.29;78.36
46846;BME280;33947;46.804;134.252;2023-09-19T16:59:48;100358.22;;;9.06;79.05
46846;BME280;33947;46.804;134.252;2023-09-19T17:03:07;100407.94;;;9.34;79.08
46846;BME280;33947;46.804;134.252;2023-09-19T17:06:20;100441.59;;;9.30;80.43
46846;BME280;33947;46.804;134.252;2023-09-19T17:09:28;100426.50;;;9.32;79.49
46846;BME280;33947;46.804;134.252;2023-09-19T17:12:32;100405.75;;;9.14;79.62
46846;BME280;33947;46.804;134.252;2023-09-19T17:15:41;100430.06;;;9.31;79.72
46846;BME280;33947;46.804;134.252;2023-09-19T17:18:54;100447.88;;;9.24;79.62
46846;BME280;33947;46.804;134.252;2023-09-19T17:22:06;100369.69;;;8.67;79.87
46846;BME280;33947;46.804;134.252;2023-09-19T17:25:28;100456.91;;;9.17;80.09
46846;BME280;33947;46.804;134.252;2023-09-19T17:28:43;100406.31;;;8.87;80.43
46846;BME280;33947;46.804;134.252;2023-09-19T17:32:29;100310.09;;;8.46;79.51
46846;BME280;33947;46.804;134.252;2023-09-19T17:36:36;100410.97;;;8.77;80.93
46846;BME280;33947;46.804;134.252;2023-09-19T17:39:52;100450.78;;;8.73;80.98
46846;BME280;33947;46.804;134.252;2023-09-19T17:43:04;100345.19;;;8.11;81.32
46846;BME280;33947;46.804;134.252;2023-09-19T17:46:17;100413.16;;;8.57;80.92
46846;BME280;33947;46.804;134.252;2023-09-19T17:49:35;100447.78;;;8.90;80.66
46846;BME280;33947;46.804;134.252;2023-09-19T17:52:57;100446.31;;;8.76;80.10
46846;BME280;33947;46.804;134.252;2023-09-19T17:56:17;100481.47;;;8.83;80.18
46846;BME280;33947;46.804;134.252;2023-09-19T17:59:27;100445.75;;;8.59;81.06
46846;BME280;33947;46.804;134.252;2023-09-19T18:02:51;100384.03;;;8.09;80.43
46846;BME280;33947;46.804;134.252;2023-09-19T18:06:31;100436.59;;;8.30;80.50
46846;BME280;33947;46.804;134.252;2023-09-19T18:09:51;100411.59;;;7.99;81.65
46846;BME280;33947;46.804;134.252;2023-09-19T18:13:17;100382.59;;;7.93;80.71
46846;BME280;33947;46.804;134.252;2023-09-19T18:16:50;100482.28;;;8.41;80.46
46846;BME280;33947;46.804;134.252;2023-09-19T18:20:17;100380.13;;;7.84;80.50
46846;BME280;33947;46.804;134.252;2023-09-19T18:24:16;100403.72;;;7.96;80.36
46846;BME280;33947;46.804;134.252;2023-09-19T18:27:49;100449.94;;;8.23;80.67
46846;BME280;33947;46.804;134.252;2023-09-19T18:31:25;100377.56;;;7.80;80.48
46846;BME280;33947;46.804;134.252;2023-09-19T18:34:32;100396.13;;;7.77;80.47
46846;BME280;33947;46.804;134.252;2023-09-19T18:37:48;100512.22;;;8.43;81.48
46846;BME280;33947;46.804;134.252;2023-09-19T18:40:57;100524.44;;;8.52;80.53
46846;BME280;33947;46.804;134.252;2023-09-19T18:44:17;100527.34;;;8.36;81.52
46846;BME280;33947;46.804;134.252;2023-09-19T18:47:28;100531.78;;;8.34;81.49
46846;BME280;33947;46.804;134.252;2023-09-19T18:50:36;100536.47;;;8.20;81.94
46846;BME280;33947;46.804;134.252;2023-09-19T18:53:50;100528.72;;;8.09;82.89
46846;BME280;33947;46.804;134.252;2023-09-19T18:57:18;100533.03;;;8.13;82.32
46846;BME280;33947;46.804;134.252;2023-09-19T19:00:32;100444.81;;;7.64;82.30
46846;BME280;33947;46.804;134.252;2023-09-19T19:03:43;100498.09;;;7.92;82.82
46846;BME280;33947;46.804;134.252;2023-09-19T19:06:55;100518.97;;;8.09;82.14
46846;BME280;33947;46.804;134.252;2023-09-19T19:09:59;100520.72;;;8.12;81.99
46846;BME280;33947;46.804;134.252;2023-09-19T19:13:10;100550.50;;;8.23;81.80
46846;BME280;33947;46.804;134.252;2023-09-19T19:16:16;100548.03;;;8.13;81.44
46846;BME280;33947;46.804;134.252;2023-09-19T19:19:26;100530.00;;;7.85;82.97
46846;BME280;33947;46.804;134.252;2023-09-19T19:22:34;100558.81;;;8.00;81.95
46846;BME280;33947;46.804;134.252;2023-09-19T19:25:47;100581.69;;;8.04;81.82
46846;BME280;33947;46.804;134.252;2023-09-19T19:28:58;100543.09;;;7.91;80.74
46846;BME280;33947;46.804;134.252;2023-09-19T19:32:08;100575.25;;;7.63;82.91
46846;BME280;33947;46.804;134.252;2023-09-19T19:35:35;100428.38;;;6.84;82.04